sensor_id;sensor_type;location;lat;lon;timestamp;P1;durP1;ratioP1;P2;durP2;ratioP2
65206;SDS011;58477;48.072;11.970;2023-03-04T00:01:39;99.70;;;35.10;;
65206;SDS011;58477;48.072;11.970;2023-03-04T00:04:04;73.88;;;29.45;;
65206;SDS011;58477;48.072;11.970;2023-03-04T00:06:30;62.85;;;24.17;;
65206;SDS011;58477;48.072;11.970;2023-03-04T00:08:55;65.22;;;24.45;;
65206;SDS011;58477;48.072;11.970;2023-03-04T00:11:21;61.70;;;24.65;;
65206;SDS011;58477;48.072;11.970;2023-03-04T00:13:46;79.30;;;29.42;;
65206;SDS011;58477;48.072;11.970;2023-03-04T00:16:12;75.40;;;30.38;;
65206;SDS011;58477;48.072;11.970;2023-03-04T00:18:37;85.45;;;32.38;;
65206;SDS011;58477;48.072;11.970;2023-03-04T00:21:02;98.47;;;36.50;;
65206;SDS011;58477;48.072;11.970;2023-03-04T00:23:28;92.63;;;35.47;;
65206;SDS011;58477;48.072;11.970;2023-03-04T00:25:53;92.22;;;32.80;;
65206;SDS011;58477;48.072;11.970;2023-03-04T00:28:19;89.22;;;34.10;;
65206;SDS011;58477;48.072;11.970;2023-03-04T00:30:44;83.50;;;33.88;;
65206;SDS011;58477;48.072;11.970;2023-03-04T00:33:10;100.30;;;35.65;;
65206;SDS011;58477;48.072;11.970;2023-03-04T00:35:35;91.78;;;35.33;;
65206;SDS011;58477;48.072;11.970;2023-03-04T00:38:00;87.25;;;35.00;;
65206;SDS011;58477;48.072;11.970;2023-03-04T00:40:26;86.95;;;34.63;;
65206;SDS011;58477;48.072;11.970;2023-03-04T00:42:51;88.72;;;36.22;;
65206;SDS011;58477;48.072;11.970;2023-03-04T00:45:17;89.85;;;33.58;;
65206;SDS011;58477;48.072;11.970;2023-03-04T00:47:42;82.28;;;33.58;;
65206;SDS011;58477;48.072;11.970;2023-03-04T00:50:08;91.45;;;36.80;;
65206;SDS011;58477;48.072;11.970;2023-03-04T00:52:34;91.93;;;33.22;;
65206;SDS011;58477;48.072;11.970;2023-03-04T00:54:59;95.55;;;34.47;;
65206;SDS011;58477;48.072;11.970;2023-03-04T00:57:25;89.60;;;34.35;;
65206;SDS011;58477;48.072;11.970;2023-03-04T00:59:50;87.45;;;32.83;;
65206;SDS011;58477;48.072;11.970;2023-03-04T01:02:16;93.65;;;34.30;;
65206;SDS011;58477;48.072;11.970;2023-03-04T01:04:41;99.75;;;33.80;;
65206;SDS011;58477;48.072;11.970;2023-03-04T01:07:07;78.13;;;33.65;;
65206;SDS011;58477;48.072;11.970;2023-03-04T01:09:33;91.60;;;34.25;;
65206;SDS011;58477;48.072;11.970;2023-03-04T01:12:00;80.47;;;30.90;;
65206;SDS011;58477;48.072;11.970;2023-03-04T01:14:26;75.68;;;29.83;;
65206;SDS011;58477;48.072;11.970;2023-03-04T01:16:51;83.25;;;32.95;;
65206;SDS011;58477;48.072;11.970;2023-03-04T01:19:17;53.00;;;22.85;;
65206;SDS011;58477;48.072;11.970;2023-03-04T01:21:43;85.15;;;31.92;;
65206;SDS011;58477;48.072;11.970;2023-03-04T01:24:08;91.55;;;32.90;;
65206;SDS011;58477;48.072;11.970;2023-03-04T01:26:34;73.95;;;28.38;;
65206;SDS011;58477;48.072;11.970;2023-03-04T01:28:59;77.07;;;29.38;;
65206;SDS011;58477;48.072;11.970;2023-03-04T01:31:25;65.88;;;27.55;;
65206;SDS011;58477;48.072;11.970;2023-03-04T01:33:50;69.82;;;28.10;;
65206;SDS011;58477;48.072;11.970;2023-03-04T01:36:16;74.53;;;29.20;;
65206;SDS011;58477;48.072;11.970;2023-03-04T01:38:42;84.45;;;32.22;;
65206;SDS011;58477;48.072;11.970;2023-03-04T01:41:07;64.05;;;25.15;;
65206;SDS011;58477;48.072;11.970;2023-03-04T01:43:33;75.30;;;32.35;;
65206;SDS011;58477;48.072;11.970;2023-03-04T01:46:00;76.97;;;30.67;;
65206;SDS011;58477;48.072;11.970;2023-03-04T01:48:28;84.25;;;32.13;;
65206;SDS011;58477;48.072;11.970;2023-03-04T01:50:58;83.95;;;32.85;;
65206;SDS011;58477;48.072;11.970;2023-03-04T01:53:27;83.20;;;32.08;;
65206;SDS011;58477;48.072;11.970;2023-03-04T01:55:54;80.63;;;32.33;;
65206;SDS011;58477;48.072;11.970;2023-03-04T01:58:23;74.82;;;32.38;;
65206;SDS011;58477;48.072;11.970;2023-03-04T02:00:52;63.67;;;27.02;;
65206;SDS011;58477;48.072;11.970;2023-03-04T02:03:17;70.55;;;29.02;;
65206;SDS011;58477;48.072;11.970;2023-03-04T02:05:45;73.97;;;30.52;;
65206;SDS011;58477;48.072;11.970;2023-03-04T02:08:13;76.50;;;30.55;;
65206;SDS011;58477;48.072;11.970;2023-03-04T02:10:40;70.75;;;26.38;;
65206;SDS011;58477;48.072;11.970;2023-03-04T02:13:07;85.10;;;32.42;;
65206;SDS011;58477;48.072;11.970;2023-03-04T02:15:33;69.78;;;29.35;;
65206;SDS011;58477;48.072;11.970;2023-03-04T02:17:59;85.65;;;34.03;;
65206;SDS011;58477;48.072;11.970;2023-03-04T02:22:58;92.53;;;33.72;;
65206;SDS011;58477;48.072;11.970;2023-03-04T02:25:30;87.28;;;32.40;;
65206;SDS011;58477;48.072;11.970;2023-03-04T02:28:01;88.05;;;35.47;;
65206;SDS011;58477;48.072;11.970;2023-03-04T02:30:27;72.30;;;29.38;;
65206;SDS011;58477;48.072;11.970;2023-03-04T02:32:52;74.78;;;29.13;;
65206;SDS011;58477;48.072;11.970;2023-03-04T02:35:18;75.53;;;32.20;;
65206;SDS011;58477;48.072;11.970;2023-03-04T02:37:45;74.15;;;30.48;;
65206;SDS011;58477;48.072;11.970;2023-03-04T02:40:30;84.78;;;33.22;;
65206;SDS011;58477;48.072;11.970;2023-03-04T02:42:58;56.80;;;24.92;;
65206;SDS011;58477;48.072;11.970;2023-03-04T02:45:38;80.13;;;34.97;;
65206;SDS011;58477;48.072;11.970;2023-03-04T02:48:07;78.68;;;33.70;;
65206;SDS011;58477;48.072;11.970;2023-03-04T02:50:35;84.88;;;34.38;;
65206;SDS011;58477;48.072;11.970;2023-03-04T02:53:09;68.97;;;28.15;;
65206;SDS011;58477;48.072;11.970;2023-03-04T02:55:35;77.30;;;32.70;;
65206;SDS011;58477;48.072;11.970;2023-03-04T02:58:00;77.10;;;32.40;;
65206;SDS011;58477;48.072;11.970;2023-03-04T03:00:27;77.22;;;32.65;;
65206;SDS011;58477;48.072;11.970;2023-03-04T03:02:52;84.60;;;34.15;;
65206;SDS011;58477;48.072;11.970;2023-03-04T03:05:18;71.32;;;31.65;;
65206;SDS011;58477;48.072;11.970;2023-03-04T03:07:44;63.08;;;28.88;;
65206;SDS011;58477;48.072;11.970;2023-03-04T03:10:10;65.25;;;26.38;;
65206;SDS011;58477;48.072;11.970;2023-03-04T03:12:35;75.50;;;31.20;;
65206;SDS011;58477;48.072;11.970;2023-03-04T03:15:02;72.47;;;30.58;;
65206;SDS011;58477;48.072;11.970;2023-03-04T03:17:28;76.13;;;31.83;;
65206;SDS011;58477;48.072;11.970;2023-03-04T03:19:53;78.40;;;34.20;;
65206;SDS011;58477;48.072;11.970;2023-03-04T03:22:19;70.22;;;28.58;;
65206;SDS011;58477;48.072;11.970;2023-03-04T03:24:44;75.38;;;31.90;;
65206;SDS011;58477;48.072;11.970;2023-03-04T03:27:10;74.93;;;31.05;;
65206;SDS011;58477;48.072;11.970;2023-03-04T03:29:35;75.45;;;30.73;;
65206;SDS011;58477;48.072;11.970;2023-03-04T03:32:01;83.10;;;33.55;;
65206;SDS011;58477;48.072;11.970;2023-03-04T03:34:26;66.70;;;28.17;;
65206;SDS011;58477;48.072;11.970;2023-03-04T03:36:52;57.05;;;25.85;;
65206;SDS011;58477;48.072;11.970;2023-03-04T03:39:17;71.20;;;29.00;;
65206;SDS011;58477;48.072;11.970;2023-03-04T03:41:44;65.55;;;26.10;;
65206;SDS011;58477;48.072;11.970;2023-03-04T03:44:09;68.50;;;30.27;;
65206;SDS011;58477;48.072;11.970;2023-03-04T03:46:34;65.55;;;28.15;;
65206;SDS011;58477;48.072;11.970;2023-03-04T03:49:00;79.32;;;34.47;;
65206;SDS011;58477;48.072;11.970;2023-03-04T03:51:26;68.40;;;29.90;;
65206;SDS011;58477;48.072;11.970;2023-03-04T03:53:51;77.35;;;30.95;;
65206;SDS011;58477;48.072;11.970;2023-03-04T03:56:17;69.03;;;30.83;;
65206;SDS011;58477;48.072;11.970;2023-03-04T03:58:42;90.25;;;36.20;;
65206;SDS011;58477;48.072;11.970;2023-03-04T04:01:07;79.38;;;33.38;;
65206;SDS011;58477;48.072;11.970;2023-03-04T04:03:33;85.82;;;34.72;;
65206;SDS011;58477;48.072;11.970;2023-03-04T04:05:59;78.20;;;31.17;;
65206;SDS011;58477;48.072;11.970;2023-03-04T04:08:24;42.97;;;19.35;;
65206;SDS011;58477;48.072;11.970;2023-03-04T04:10:50;52.45;;;21.25;;
65206;SDS011;58477;48.072;11.970;2023-03-04T04:13:16;61.13;;;27.58;;
65206;SDS011;58477;48.072;11.970;2023-03-04T04:15:41;58.63;;;23.10;;
65206;SDS011;58477;48.072;11.970;2023-03-04T04:18:07;40.88;;;18.92;;
65206;SDS011;58477;48.072;11.970;2023-03-04T04:20:32;65.28;;;30.20;;
65206;SDS011;58477;48.072;11.970;2023-03-04T04:22:58;63.05;;;26.48;;
65206;SDS011;58477;48.072;11.970;2023-03-04T04:25:24;57.85;;;26.55;;
65206;SDS011;58477;48.072;11.970;2023-03-04T04:27:49;44.00;;;20.45;;
65206;SDS011;58477;48.072;11.970;2023-03-04T04:30:14;71.55;;;30.85;;
65206;SDS011;58477;48.072;11.970;2023-03-04T04:32:40;63.13;;;27.83;;
65206;SDS011;58477;48.072;11.970;2023-03-04T04:35:06;52.88;;;21.42;;
65206;SDS011;58477;48.072;11.970;2023-03-04T04:37:32;55.60;;;23.38;;
65206;SDS011;58477;48.072;11.970;2023-03-04T04:39:57;45.08;;;22.70;;
65206;SDS011;58477;48.072;11.970;2023-03-04T04:42:23;47.15;;;21.25;;
65206;SDS011;58477;48.072;11.970;2023-03-04T04:44:49;49.53;;;23.05;;
65206;SDS011;58477;48.072;11.970;2023-03-04T04:47:14;56.55;;;26.42;;
65206;SDS011;58477;48.072;11.970;2023-03-04T04:49:40;63.72;;;26.65;;
65206;SDS011;58477;48.072;11.970;2023-03-04T04:52:05;51.00;;;19.42;;
65206;SDS011;58477;48.072;11.970;2023-03-04T04:54:30;37.33;;;17.08;;
65206;SDS011;58477;48.072;11.970;2023-03-04T04:56:56;45.65;;;21.92;;
65206;SDS011;58477;48.072;11.970;2023-03-04T04:59:21;40.72;;;20.90;;
65206;SDS011;58477;48.072;11.970;2023-03-04T05:01:47;53.88;;;24.05;;
65206;SDS011;58477;48.072;11.970;2023-03-04T05:04:12;51.72;;;22.50;;
65206;SDS011;58477;48.072;11.970;2023-03-04T05:06:38;42.25;;;20.13;;
65206;SDS011;58477;48.072;11.970;2023-03-04T05:09:04;56.15;;;25.23;;
65206;SDS011;58477;48.072;11.970;2023-03-04T05:11:30;54.92;;;25.90;;
65206;SDS011;58477;48.072;11.970;2023-03-04T05:13:55;29.63;;;15.85;;
65206;SDS011;58477;48.072;11.970;2023-03-04T05:16:21;26.65;;;13.52;;
65206;SDS011;58477;48.072;11.970;2023-03-04T05:18:46;36.33;;;15.50;;
65206;SDS011;58477;48.072;11.970;2023-03-04T05:21:12;46.15;;;21.15;;
65206;SDS011;58477;48.072;11.970;2023-03-04T05:23:38;57.10;;;23.35;;
65206;SDS011;58477;48.072;11.970;2023-03-04T05:26:06;67.15;;;29.15;;
65206;SDS011;58477;48.072;11.970;2023-03-04T05:28:32;59.70;;;26.20;;
65206;SDS011;58477;48.072;11.970;2023-03-04T05:30:58;36.88;;;16.65;;
65206;SDS011;58477;48.072;11.970;2023-03-04T05:33:25;45.72;;;22.02;;
65206;SDS011;58477;48.072;11.970;2023-03-04T05:35:50;28.85;;;13.73;;
65206;SDS011;58477;48.072;11.970;2023-03-04T05:38:17;23.05;;;13.00;;
65206;SDS011;58477;48.072;11.970;2023-03-04T05:40:43;27.38;;;13.68;;
65206;SDS011;58477;48.072;11.970;2023-03-04T05:43:09;59.60;;;28.58;;
65206;SDS011;58477;48.072;11.970;2023-03-04T05:45:34;56.65;;;25.95;;
65206;SDS011;58477;48.072;11.970;2023-03-04T05:48:01;37.90;;;19.52;;
65206;SDS011;58477;48.072;11.970;2023-03-04T05:50:27;49.42;;;21.75;;
65206;SDS011;58477;48.072;11.970;2023-03-04T05:52:53;26.48;;;14.15;;
65206;SDS011;58477;48.072;11.970;2023-03-04T05:55:19;39.08;;;19.88;;
65206;SDS011;58477;48.072;11.970;2023-03-04T05:57:44;54.80;;;24.15;;
65206;SDS011;58477;48.072;11.970;2023-03-04T06:00:10;33.92;;;14.35;;
65206;SDS011;58477;48.072;11.970;2023-03-04T06:02:40;30.35;;;16.83;;
65206;SDS011;58477;48.072;11.970;2023-03-04T06:05:06;45.88;;;21.05;;
65206;SDS011;58477;48.072;11.970;2023-03-04T06:07:33;55.95;;;25.65;;
65206;SDS011;58477;48.072;11.970;2023-03-04T06:09:58;41.75;;;18.00;;
65206;SDS011;58477;48.072;11.970;2023-03-04T06:12:24;21.70;;;13.20;;
65206;SDS011;58477;48.072;11.970;2023-03-04T06:14:49;37.80;;;16.67;;
65206;SDS011;58477;48.072;11.970;2023-03-04T06:17:15;40.80;;;19.55;;
65206;SDS011;58477;48.072;11.970;2023-03-04T06:19:40;35.80;;;14.70;;
65206;SDS011;58477;48.072;11.970;2023-03-04T06:22:06;46.83;;;22.00;;
65206;SDS011;58477;48.072;11.970;2023-03-04T06:24:33;45.92;;;22.55;;
65206;SDS011;58477;48.072;11.970;2023-03-04T06:27:00;51.88;;;23.02;;
65206;SDS011;58477;48.072;11.970;2023-03-04T06:29:25;32.75;;;17.58;;
65206;SDS011;58477;48.072;11.970;2023-03-04T06:31:51;57.88;;;24.70;;
65206;SDS011;58477;48.072;11.970;2023-03-04T06:34:16;44.28;;;21.17;;
65206;SDS011;58477;48.072;11.970;2023-03-04T06:36:42;40.38;;;19.42;;
65206;SDS011;58477;48.072;11.970;2023-03-04T06:39:08;52.42;;;24.70;;
65206;SDS011;58477;48.072;11.970;2023-03-04T06:41:34;51.90;;;24.85;;
65206;SDS011;58477;48.072;11.970;2023-03-04T06:43:59;44.75;;;22.30;;
65206;SDS011;58477;48.072;11.970;2023-03-04T06:46:25;42.92;;;21.40;;
65206;SDS011;58477;48.072;11.970;2023-03-04T06:48:50;36.60;;;16.73;;
65206;SDS011;58477;48.072;11.970;2023-03-04T06:51:15;48.47;;;23.73;;
65206;SDS011;58477;48.072;11.970;2023-03-04T06:53:41;53.10;;;24.70;;
65206;SDS011;58477;48.072;11.970;2023-03-04T06:56:08;43.38;;;20.25;;
65206;SDS011;58477;48.072;11.970;2023-03-04T06:58:35;45.05;;;20.13;;
65206;SDS011;58477;48.072;11.970;2023-03-04T07:03:38;34.10;;;15.88;;
65206;SDS011;58477;48.072;11.970;2023-03-04T07:06:04;49.05;;;24.33;;
65206;SDS011;58477;48.072;11.970;2023-03-04T07:08:29;35.15;;;19.08;;
65206;SDS011;58477;48.072;11.970;2023-03-04T07:10:55;40.30;;;19.55;;
65206;SDS011;58477;48.072;11.970;2023-03-04T07:13:20;33.08;;;18.17;;
65206;SDS011;58477;48.072;11.970;2023-03-04T07:15:46;38.20;;;18.80;;
65206;SDS011;58477;48.072;11.970;2023-03-04T07:18:11;38.33;;;16.85;;
65206;SDS011;58477;48.072;11.970;2023-03-04T07:20:36;39.00;;;18.00;;
65206;SDS011;58477;48.072;11.970;2023-03-04T07:23:02;33.38;;;16.85;;
65206;SDS011;58477;48.072;11.970;2023-03-04T07:25:27;37.45;;;19.17;;
65206;SDS011;58477;48.072;11.970;2023-03-04T07:27:53;34.17;;;17.85;;
65206;SDS011;58477;48.072;11.970;2023-03-04T07:30:18;36.13;;;20.20;;
65206;SDS011;58477;48.072;11.970;2023-03-04T07:32:44;34.35;;;18.55;;
65206;SDS011;58477;48.072;11.970;2023-03-04T07:35:09;37.78;;;20.55;;
65206;SDS011;58477;48.072;11.970;2023-03-04T07:37:35;35.90;;;19.00;;
65206;SDS011;58477;48.072;11.970;2023-03-04T07:40:00;36.83;;;19.42;;
65206;SDS011;58477;48.072;11.970;2023-03-04T07:42:26;26.48;;;15.38;;
65206;SDS011;58477;48.072;11.970;2023-03-04T07:44:58;31.27;;;17.35;;
65206;SDS011;58477;48.072;11.970;2023-03-04T07:47:25;35.13;;;18.00;;
65206;SDS011;58477;48.072;11.970;2023-03-04T07:49:51;34.75;;;18.02;;
65206;SDS011;58477;48.072;11.970;2023-03-04T07:52:17;19.80;;;11.85;;
65206;SDS011;58477;48.072;11.970;2023-03-04T07:54:43;22.42;;;12.85;;
65206;SDS011;58477;48.072;11.970;2023-03-04T07:57:08;34.63;;;16.95;;
65206;SDS011;58477;48.072;11.970;2023-03-04T07:59:34;23.17;;;12.15;;
65206;SDS011;58477;48.072;11.970;2023-03-04T08:01:59;30.65;;;15.75;;
65206;SDS011;58477;48.072;11.970;2023-03-04T08:04:24;19.35;;;10.20;;
65206;SDS011;58477;48.072;11.970;2023-03-04T08:06:50;17.90;;;9.77;;
65206;SDS011;58477;48.072;11.970;2023-03-04T08:09:15;19.48;;;11.65;;
65206;SDS011;58477;48.072;11.970;2023-03-04T08:11:41;28.23;;;15.65;;
65206;SDS011;58477;48.072;11.970;2023-03-04T08:14:07;19.67;;;11.32;;
65206;SDS011;58477;48.072;11.970;2023-03-04T08:16:33;31.25;;;16.83;;
65206;SDS011;58477;48.072;11.970;2023-03-04T08:18:59;29.52;;;16.13;;
65206;SDS011;58477;48.072;11.970;2023-03-04T08:21:26;34.15;;;17.15;;
65206;SDS011;58477;48.072;11.970;2023-03-04T08:23:52;27.33;;;15.73;;
65206;SDS011;58477;48.072;11.970;2023-03-04T08:26:19;29.70;;;15.05;;
65206;SDS011;58477;48.072;11.970;2023-03-04T08:28:46;27.50;;;15.98;;
65206;SDS011;58477;48.072;11.970;2023-03-04T08:31:12;30.20;;;18.27;;
65206;SDS011;58477;48.072;11.970;2023-03-04T08:33:39;26.15;;;15.75;;
65206;SDS011;58477;48.072;11.970;2023-03-04T08:36:05;29.23;;;16.42;;
65206;SDS011;58477;48.072;11.970;2023-03-04T08:38:31;27.88;;;15.15;;
65206;SDS011;58477;48.072;11.970;2023-03-04T08:40:56;29.67;;;16.33;;
65206;SDS011;58477;48.072;11.970;2023-03-04T08:43:22;29.02;;;15.52;;
65206;SDS011;58477;48.072;11.970;2023-03-04T08:45:49;30.00;;;16.67;;
65206;SDS011;58477;48.072;11.970;2023-03-04T08:48:16;15.90;;;10.20;;
65206;SDS011;58477;48.072;11.970;2023-03-04T08:50:43;24.02;;;13.63;;
65206;SDS011;58477;48.072;11.970;2023-03-04T08:53:09;30.17;;;17.98;;
65206;SDS011;58477;48.072;11.970;2023-03-04T08:55:36;31.45;;;16.42;;
65206;SDS011;58477;48.072;11.970;2023-03-04T08:58:02;25.05;;;14.43;;
65206;SDS011;58477;48.072;11.970;2023-03-04T09:00:28;27.95;;;14.45;;
65206;SDS011;58477;48.072;11.970;2023-03-04T09:02:53;27.42;;;16.95;;
65206;SDS011;58477;48.072;11.970;2023-03-04T09:05:19;30.95;;;17.73;;
65206;SDS011;58477;48.072;11.970;2023-03-04T09:07:45;27.67;;;15.55;;
65206;SDS011;58477;48.072;11.970;2023-03-04T09:10:11;24.42;;;15.15;;
65206;SDS011;58477;48.072;11.970;2023-03-04T09:12:37;27.65;;;17.23;;
65206;SDS011;58477;48.072;11.970;2023-03-04T09:15:02;23.42;;;13.57;;
65206;SDS011;58477;48.072;11.970;2023-03-04T09:17:30;27.38;;;15.18;;
65206;SDS011;58477;48.072;11.970;2023-03-04T09:19:56;28.25;;;16.83;;
65206;SDS011;58477;48.072;11.970;2023-03-04T09:22:22;30.35;;;16.85;;
65206;SDS011;58477;48.072;11.970;2023-03-04T09:24:47;27.67;;;16.67;;
65206;SDS011;58477;48.072;11.970;2023-03-04T09:27:13;29.98;;;16.23;;
65206;SDS011;58477;48.072;11.970;2023-03-04T09:29:38;32.28;;;16.90;;
65206;SDS011;58477;48.072;11.970;2023-03-04T09:32:04;26.38;;;13.10;;
65206;SDS011;58477;48.072;11.970;2023-03-04T09:34:30;39.30;;;17.17;;
65206;SDS011;58477;48.072;11.970;2023-03-04T09:36:55;29.00;;;18.08;;
65206;SDS011;58477;48.072;11.970;2023-03-04T09:39:21;32.00;;;17.70;;
65206;SDS011;58477;48.072;11.970;2023-03-04T09:41:47;30.02;;;16.33;;
65206;SDS011;58477;48.072;11.970;2023-03-04T09:44:25;24.25;;;10.98;;
65206;SDS011;58477;48.072;11.970;2023-03-04T09:46:52;31.33;;;17.48;;
65206;SDS011;58477;48.072;11.970;2023-03-04T09:49:20;32.40;;;18.50;;
65206;SDS011;58477;48.072;11.970;2023-03-04T09:56:56;28.58;;;17.05;;
65206;SDS011;58477;48.072;11.970;2023-03-04T09:59:31;30.60;;;17.33;;
65206;SDS011;58477;48.072;11.970;2023-03-04T10:02:19;24.33;;;15.75;;
65206;SDS011;58477;48.072;11.970;2023-03-04T10:04:54;19.58;;;11.85;;
65206;SDS011;58477;48.072;11.970;2023-03-04T10:07:27;20.48;;;11.27;;
65206;SDS011;58477;48.072;11.970;2023-03-04T10:09:59;23.48;;;14.07;;
65206;SDS011;58477;48.072;11.970;2023-03-04T10:12:29;20.45;;;12.52;;
65206;SDS011;58477;48.072;11.970;2023-03-04T10:14:59;22.50;;;12.95;;
65206;SDS011;58477;48.072;11.970;2023-03-04T10:20:08;18.42;;;12.20;;
65206;SDS011;58477;48.072;11.970;2023-03-04T10:22:43;28.63;;;15.20;;
65206;SDS011;58477;48.072;11.970;2023-03-04T10:25:18;22.42;;;12.82;;
65206;SDS011;58477;48.072;11.970;2023-03-04T10:28:03;27.40;;;14.43;;
65206;SDS011;58477;48.072;11.970;2023-03-04T10:30:50;30.85;;;18.38;;
65206;SDS011;58477;48.072;11.970;2023-03-04T10:33:24;28.02;;;16.30;;
65206;SDS011;58477;48.072;11.970;2023-03-04T10:35:53;28.77;;;15.82;;
65206;SDS011;58477;48.072;11.970;2023-03-04T10:38:31;30.20;;;15.60;;
65206;SDS011;58477;48.072;11.970;2023-03-04T10:41:09;28.90;;;16.73;;
65206;SDS011;58477;48.072;11.970;2023-03-04T10:43:39;20.95;;;12.80;;
65206;SDS011;58477;48.072;11.970;2023-03-04T10:46:09;26.67;;;15.30;;
65206;SDS011;58477;48.072;11.970;2023-03-04T10:48:36;29.67;;;15.35;;
65206;SDS011;58477;48.072;11.970;2023-03-04T10:51:21;27.80;;;13.38;;
65206;SDS011;58477;48.072;11.970;2023-03-04T10:53:49;26.83;;;14.23;;
65206;SDS011;58477;48.072;11.970;2023-03-04T11:04:48;24.55;;;13.98;;
65206;SDS011;58477;48.072;11.970;2023-03-04T11:07:26;23.10;;;12.45;;
65206;SDS011;58477;48.072;11.970;2023-03-04T11:09:51;27.63;;;12.77;;
65206;SDS011;58477;48.072;11.970;2023-03-04T11:12:18;17.52;;;9.70;;
65206;SDS011;58477;48.072;11.970;2023-03-04T11:14:50;20.50;;;11.95;;
65206;SDS011;58477;48.072;11.970;2023-03-04T11:19:44;27.33;;;14.50;;
65206;SDS011;58477;48.072;11.970;2023-03-04T11:22:16;22.10;;;10.45;;
65206;SDS011;58477;48.072;11.970;2023-03-04T11:24:44;20.92;;;12.77;;
65206;SDS011;58477;48.072;11.970;2023-03-04T11:27:19;30.77;;;16.15;;
65206;SDS011;58477;48.072;11.970;2023-03-04T11:32:55;29.50;;;16.98;;
65206;SDS011;58477;48.072;11.970;2023-03-04T11:35:44;27.75;;;15.45;;
65206;SDS011;58477;48.072;11.970;2023-03-04T11:38:18;33.15;;;18.00;;
65206;SDS011;58477;48.072;11.970;2023-03-04T11:40:50;23.80;;;14.38;;
65206;SDS011;58477;48.072;11.970;2023-03-04T11:43:29;26.88;;;14.13;;
65206;SDS011;58477;48.072;11.970;2023-03-04T11:49:17;29.67;;;15.68;;
65206;SDS011;58477;48.072;11.970;2023-03-04T11:57:12;23.80;;;11.88;;
65206;SDS011;58477;48.072;11.970;2023-03-04T12:05:27;34.97;;;21.38;;
65206;SDS011;58477;48.072;11.970;2023-03-04T12:08:07;36.38;;;19.77;;
65206;SDS011;58477;48.072;11.970;2023-03-04T12:10:58;31.50;;;16.92;;
65206;SDS011;58477;48.072;11.970;2023-03-04T12:28:46;33.38;;;18.77;;
65206;SDS011;58477;48.072;11.970;2023-03-04T12:31:49;25.73;;;16.00;;
65206;SDS011;58477;48.072;11.970;2023-03-04T12:48:22;33.63;;;18.83;;
65206;SDS011;58477;48.072;11.970;2023-03-04T12:51:22;33.10;;;19.02;;
65206;SDS011;58477;48.072;11.970;2023-03-04T12:59:16;35.05;;;19.05;;
65206;SDS011;58477;48.072;11.970;2023-03-04T13:04:28;22.08;;;12.85;;
65206;SDS011;58477;48.072;11.970;2023-03-04T13:10:04;25.85;;;13.98;;
65206;SDS011;58477;48.072;11.970;2023-03-04T13:12:48;25.73;;;14.73;;
65206;SDS011;58477;48.072;11.970;2023-03-04T13:15:16;17.02;;;10.75;;
65206;SDS011;58477;48.072;11.970;2023-03-04T13:17:49;28.67;;;17.92;;
65206;SDS011;58477;48.072;11.970;2023-03-04T13:25:34;31.75;;;16.17;;
65206;SDS011;58477;48.072;11.970;2023-03-04T13:41:20;32.40;;;15.20;;
65206;SDS011;58477;48.072;11.970;2023-03-04T13:43:47;28.85;;;14.40;;
65206;SDS011;58477;48.072;11.970;2023-03-04T13:51:18;25.83;;;14.50;;
65206;SDS011;58477;48.072;11.970;2023-03-04T14:01:34;26.58;;;12.93;;
65206;SDS011;58477;48.072;11.970;2023-03-04T14:04:16;25.65;;;13.63;;
65206;SDS011;58477;48.072;11.970;2023-03-04T14:06:42;23.65;;;13.02;;
65206;SDS011;58477;48.072;11.970;2023-03-04T14:09:19;21.88;;;12.35;;
65206;SDS011;58477;48.072;11.970;2023-03-04T14:11:47;27.67;;;13.75;;
65206;SDS011;58477;48.072;11.970;2023-03-04T14:14:17;24.13;;;13.63;;
65206;SDS011;58477;48.072;11.970;2023-03-04T14:16:50;27.75;;;13.35;;
65206;SDS011;58477;48.072;11.970;2023-03-04T14:19:42;25.25;;;14.48;;
65206;SDS011;58477;48.072;11.970;2023-03-04T14:22:25;16.67;;;10.20;;
65206;SDS011;58477;48.072;11.970;2023-03-04T14:24:55;23.65;;;12.50;;
65206;SDS011;58477;48.072;11.970;2023-03-04T14:27:22;24.58;;;13.50;;
65206;SDS011;58477;48.072;11.970;2023-03-04T14:29:54;25.75;;;13.63;;
65206;SDS011;58477;48.072;11.970;2023-03-04T14:32:24;19.83;;;11.48;;
65206;SDS011;58477;48.072;11.970;2023-03-04T14:34:50;24.00;;;13.95;;
65206;SDS011;58477;48.072;11.970;2023-03-04T14:37:25;25.30;;;13.57;;
65206;SDS011;58477;48.072;11.970;2023-03-04T14:39:54;25.15;;;10.70;;
65206;SDS011;58477;48.072;11.970;2023-03-04T14:42:23;25.65;;;13.23;;
65206;SDS011;58477;48.072;11.970;2023-03-04T14:44:53;25.43;;;12.50;;
65206;SDS011;58477;48.072;11.970;2023-03-04T14:47:29;27.80;;;14.50;;
65206;SDS011;58477;48.072;11.970;2023-03-04T14:50:12;22.73;;;12.50;;
65206;SDS011;58477;48.072;11.970;2023-03-04T14:52:41;22.92;;;13.60;;
65206;SDS011;58477;48.072;11.970;2023-03-04T14:58:15;18.23;;;9.93;;
65206;SDS011;58477;48.072;11.970;2023-03-04T15:00:44;18.27;;;9.77;;
65206;SDS011;58477;48.072;11.970;2023-03-04T15:03:29;19.35;;;8.93;;
65206;SDS011;58477;48.072;11.970;2023-03-04T15:06:05;24.00;;;11.38;;
65206;SDS011;58477;48.072;11.970;2023-03-04T15:08:39;15.00;;;10.15;;
65206;SDS011;58477;48.072;11.970;2023-03-04T15:11:05;24.67;;;11.73;;
65206;SDS011;58477;48.072;11.970;2023-03-04T15:13:44;20.73;;;11.43;;
65206;SDS011;58477;48.072;11.970;2023-03-04T15:16:14;28.63;;;13.73;;
65206;SDS011;58477;48.072;11.970;2023-03-04T15:23:44;19.90;;;11.60;;
65206;SDS011;58477;48.072;11.970;2023-03-04T15:26:10;25.08;;;13.55;;
65206;SDS011;58477;48.072;11.970;2023-03-04T15:28:37;21.30;;;11.43;;
65206;SDS011;58477;48.072;11.970;2023-03-04T15:31:04;23.35;;;12.88;;
65206;SDS011;58477;48.072;11.970;2023-03-04T15:33:30;19.95;;;11.00;;
65206;SDS011;58477;48.072;11.970;2023-03-04T15:36:00;24.30;;;12.45;;
65206;SDS011;58477;48.072;11.970;2023-03-04T15:38:27;18.60;;;10.05;;
65206;SDS011;58477;48.072;11.970;2023-03-04T15:40:53;18.73;;;10.50;;
65206;SDS011;58477;48.072;11.970;2023-03-04T15:43:20;20.23;;;10.30;;
65206;SDS011;58477;48.072;11.970;2023-03-04T15:45:48;23.88;;;8.90;;
65206;SDS011;58477;48.072;11.970;2023-03-04T16:00:43;20.02;;;11.65;;
65206;SDS011;58477;48.072;11.970;2023-03-04T16:03:14;18.75;;;10.13;;
65206;SDS011;58477;48.072;11.970;2023-03-04T16:05:42;21.75;;;10.82;;
65206;SDS011;58477;48.072;11.970;2023-03-04T16:08:10;23.83;;;11.70;;
65206;SDS011;58477;48.072;11.970;2023-03-04T16:10:38;22.42;;;12.07;;
65206;SDS011;58477;48.072;11.970;2023-03-04T16:13:04;20.52;;;11.02;;
65206;SDS011;58477;48.072;11.970;2023-03-04T16:15:29;16.00;;;8.75;;
65206;SDS011;58477;48.072;11.970;2023-03-04T16:17:55;15.55;;;8.55;;
65206;SDS011;58477;48.072;11.970;2023-03-04T16:20:26;18.50;;;10.27;;
65206;SDS011;58477;48.072;11.970;2023-03-04T16:22:57;25.90;;;11.50;;
65206;SDS011;58477;48.072;11.970;2023-03-04T16:25:24;23.23;;;11.85;;
65206;SDS011;58477;48.072;11.970;2023-03-04T16:27:51;25.52;;;11.93;;